AirNav   Duncan Aviation - Near you to keep you flying
 
 1208 users online  

NH60 Huff Memorial Airport
New Boston, New Hampshire, USA

GOING TO NEW BOSTON?


FAA INFORMATION EFFECTIVE 04 NOVEMBER 2021

Location

FAA Identifier: NH60
Lat/Long: 42-57-32.6000N 071-39-11.2200W
42-57.543333N 071-39.187000W
42.9590556,-71.6531167
(estimated)
Elevation: 840 ft. / 256 m (estimated)
Variation: 16W (1985)
From city: 2 miles SE of NEW BOSTON, NH
Time zone: UTC -4 (UTC -5 during Standard Time)
Zip code: 03070

Airport Operations

Airport use: Private use, PERSONAL USE.
Activation date: 12/1990
Control tower: no
ARTCC: BOSTON CENTER
FSS: BANGOR FLIGHT SERVICE STATION
Attendance: UNATNDD
Segmented circle: no

Airport Communications

WX ASOS at MHT (10 nm E): 119.55 (603-621-1766)
WX AWOS-3PT at ASH (12 nm SE): 125.1 (603-578-0473)
WX ASOS at CON (16 nm NE): 132.325 (603-224-6558)
WX ASOS at AFN (18 nm SW): 135.875 (603-532-6195)

Nearby radio navigation aids

VOR radial/distance  VOR name  Freq  Var
MHTr309/13.6MANCHESTER VOR/DME114.4015W
CONr207/16.0CONCORD VOR/DME112.9015W
GDMr050/30.5GARDNER VOR/DME110.6014W
PSMr274/36.8PEASE VOR/DME116.5016W

 
NDB name  Hdg/Dist  Freq  Var  ID
FITZY331/7.920915WMJ -- .---
EPSOM239/13.021616WCO -.-. ---
ROLLINS263/39.426016WESG . ... --.
CLAREMONT144/39.923316WCNH -.-. -. ....

Airport Services

Runway Information

Runway 16/34

Dimensions: 940 x 100 ft. / 287 x 30 m
Surface: turf
RUNWAY 16  RUNWAY 34
Traffic pattern: leftleft
Obstructions: 15 ft. bldg, 450 ft. from runwaynone

Airport Ownership and Management from official FAA records

Ownership: Privately-owned
Owner: DAVID KENT
55 LAUREL LANE
NEW BOSTON, NH 03070
Phone 617-230-1581
Manager: DAVID KENT
55 LAUREL LANE
NEW BOSTON, NH 03070
Phone 617-230-1581

Airport Operational Statistics

Aircraft based on the field: 1
Single engine airplanes: 1
    
Aircraft operations: 10/year
100% local general aviation

Additional Remarks

FOR CD CTC BOSTON APCH AT 603-594-5551.
WINDSOCKS LCTD AT END OF RWY 16 & 34.

Instrument Procedures

There are no published instrument procedures at NH60.

Some nearby airports with instrument procedures:

KMHT - Manchester Boston Regional Airport (10 nm E)
KASH - Boire Field Airport (12 nm SE)
KCON - Concord Municipal Airport (16 nm NE)
KAFN - Jaffrey/Silver Ranch Airport (18 nm SW)
KFIT - Fitchburg Municipal Airport (25 nm S)
 
Loc | Ops | Rwys | IFR | FBO | Links
Com | Nav | Svcs | Stats | Notes
Area around NH60 (Huff Memorial Airport)
 
Road maps at: MapQuest Bing Google
 
Aerial photo
WARNING: Photo may not be current or correct
Aerial photo of NH60 (Huff Memorial Airport)
Taken in the Winter of 2019

Do you have a better or more recent aerial photo of Huff Memorial Airport that you would like to share? If so, please send us your photo.

 
Sectional chart

 
Airport distance calculator
Flying to Huff Memorial Airport? Find the distance to fly.

From to NH60

Sunrise and sunset
Times for 27-Nov-2021
 Local
(UTC-5)
 Zulu
(UTC)
Morning civil twilight06:2311:23
Sunrise06:5511:55
Sunset16:1421:14
Evening civil twilight16:4521:45

Current date and time
Zulu (UTC)  27-Nov-2021 22:53:32
Local (UTC-5)  27-Nov-2021 17:53:32
 
METAR
KMHT 
10nm E 
272153Z 25010G17KT 10SM CLR 00/M07 A2972 RMK AO2 SLP082 T00001072
KASH 
13nm SE 
272156Z 29014G23KT 10SM CLR 00/M07 A2975 RMK AO2 SLP082 T00001067
KCON 
16nm NE 
272151Z AUTO 28012G22KT 10SM CLR M02/M08 A2970 RMK AO2 SLP063 T10171078
KAFN 
18nm SW 
272152Z AUTO 27008G18KT 10SM CLR M02/M08 A2971 RMK AO2 SLP079 T10221083
TAF
KMHT 
10nm E 
271729Z 2718/2818 29015G25KT P6SM BKN035 FM272300 29009G16KT P6SM SKC FM280400 27006KT P6SM SCT250
KCON 
16nm NE 
271729Z 2718/2818 28017G27KT P6SM BKN035 FM272300 29008G16KT P6SM SKC FM280600 28005KT P6SM SCT250
NOTAMs
Click for the latest NOTAMs
NOTAMs are issued by the DoD/FAA and will open in a separate window not controlled by AirNav.

 

 
 

Would you like to see your business listed on this page?

 If your business provides an interesting product or service to pilots, flight crews, aircraft, or users of the Huff Memorial Airport, you should consider listing it here.  To start the listing process, click on the button below
 
Add a business
 

Other Pages about Huff Memorial Airport

Update a link
 
Copyright © AirNav, LLC. All rights reserved. Privacy Policy  Contact